sensor_id;sensor_type;location;lat;lon;timestamp;pressure;altitude;pressure_sealevel;temperature
19282;BMP180;9774;52.034;5.342;2022-11-09T00:01:27;100255.00;;;18.90
19282;BMP180;9774;52.034;5.342;2022-11-09T00:03:55;100251.00;;;18.90
19282;BMP180;9774;52.034;5.342;2022-11-09T00:06:23;100250.00;;;18.90
19282;BMP180;9774;52.034;5.342;2022-11-09T00:08:50;100254.00;;;18.90
19282;BMP180;9774;52.034;5.342;2022-11-09T00:11:20;100260.00;;;18.80
19282;BMP180;9774;52.034;5.342;2022-11-09T00:13:48;100264.00;;;18.80
19282;BMP180;9774;52.034;5.342;2022-11-09T00:16:16;100271.00;;;18.80
19282;BMP180;9774;52.034;5.342;2022-11-09T00:18:44;100272.00;;;18.80
19282;BMP180;9774;52.034;5.342;2022-11-09T00:21:14;100269.00;;;18.80
19282;BMP180;9774;52.034;5.342;2022-11-09T00:23:41;100277.00;;;18.80
19282;BMP180;9774;52.034;5.342;2022-11-09T00:26:11;100276.00;;;18.80
19282;BMP180;9774;52.034;5.342;2022-11-09T00:28:41;100279.00;;;18.70
19282;BMP180;9774;52.034;5.342;2022-11-09T00:31:11;100272.00;;;18.70
19282;BMP180;9774;52.034;5.342;2022-11-09T00:33:39;100274.00;;;18.70
19282;BMP180;9774;52.034;5.342;2022-11-09T00:36:09;100275.00;;;18.70
19282;BMP180;9774;52.034;5.342;2022-11-09T00:38:37;100277.00;;;18.70
19282;BMP180;9774;52.034;5.342;2022-11-09T00:41:07;100268.00;;;18.70
19282;BMP180;9774;52.034;5.342;2022-11-09T00:43:35;100274.00;;;18.70
19282;BMP180;9774;52.034;5.342;2022-11-09T00:46:04;100271.00;;;18.60
19282;BMP180;9774;52.034;5.342;2022-11-09T00:48:32;100270.00;;;18.60
19282;BMP180;9774;52.034;5.342;2022-11-09T00:50:59;100270.00;;;18.60
19282;BMP180;9774;52.034;5.342;2022-11-09T00:53:27;100266.00;;;18.60
19282;BMP180;9774;52.034;5.342;2022-11-09T00:55:56;100256.00;;;18.60
19282;BMP180;9774;52.034;5.342;2022-11-09T00:58:25;100260.00;;;18.60
19282;BMP180;9774;52.034;5.342;2022-11-09T01:00:53;100257.00;;;18.50
19282;BMP180;9774;52.034;5.342;2022-11-09T01:03:22;100258.00;;;18.50
19282;BMP180;9774;52.034;5.342;2022-11-09T01:05:50;100262.00;;;18.50
19282;BMP180;9774;52.034;5.342;2022-11-09T01:08:18;100251.00;;;18.50
19282;BMP180;9774;52.034;5.342;2022-11-09T01:10:47;100259.00;;;18.50
19282;BMP180;9774;52.034;5.342;2022-11-09T01:13:16;100252.00;;;18.40
19282;BMP180;9774;52.034;5.342;2022-11-09T01:15:45;100265.00;;;18.40
19282;BMP180;9774;52.034;5.342;2022-11-09T01:18:14;100262.00;;;18.40
19282;BMP180;9774;52.034;5.342;2022-11-09T01:20:45;100269.00;;;18.40
19282;BMP180;9774;52.034;5.342;2022-11-09T01:23:14;100268.00;;;18.40
19282;BMP180;9774;52.034;5.342;2022-11-09T01:25:41;100265.00;;;18.40
19282;BMP180;9774;52.034;5.342;2022-11-09T01:28:09;100269.00;;;18.40
19282;BMP180;9774;52.034;5.342;2022-11-09T01:30:38;100279.00;;;18.40
19282;BMP180;9774;52.034;5.342;2022-11-09T01:33:07;100281.00;;;18.40
19282;BMP180;9774;52.034;5.342;2022-11-09T01:35:36;100266.00;;;18.40
19282;BMP180;9774;52.034;5.342;2022-11-09T01:38:06;100268.00;;;18.40
19282;BMP180;9774;52.034;5.342;2022-11-09T01:40:35;100271.00;;;18.40
19282;BMP180;9774;52.034;5.342;2022-11-09T01:43:06;100266.00;;;18.30
19282;BMP180;9774;52.034;5.342;2022-11-09T01:45:39;100271.00;;;18.40
19282;BMP180;9774;52.034;5.342;2022-11-09T01:48:12;100266.00;;;18.30
19282;BMP180;9774;52.034;5.342;2022-11-09T01:50:42;100273.00;;;18.30
19282;BMP180;9774;52.034;5.342;2022-11-09T01:53:15;100280.00;;;18.30
19282;BMP180;9774;52.034;5.342;2022-11-09T01:55:46;100286.00;;;18.30
19282;BMP180;9774;52.034;5.342;2022-11-09T01:58:17;100282.00;;;18.30
19282;BMP180;9774;52.034;5.342;2022-11-09T02:00:47;100287.00;;;18.30
19282;BMP180;9774;52.034;5.342;2022-11-09T02:03:20;100279.00;;;18.20
19282;BMP180;9774;52.034;5.342;2022-11-09T02:05:48;100288.00;;;18.30
19282;BMP180;9774;52.034;5.342;2022-11-09T02:08:19;100286.00;;;18.30
19282;BMP180;9774;52.034;5.342;2022-11-09T02:10:51;100279.00;;;18.30
19282;BMP180;9774;52.034;5.342;2022-11-09T02:13:23;100262.00;;;18.30
19282;BMP180;9774;52.034;5.342;2022-11-09T02:15:51;100253.00;;;18.30
19282;BMP180;9774;52.034;5.342;2022-11-09T02:18:19;100253.00;;;18.30
19282;BMP180;9774;52.034;5.342;2022-11-09T02:20:50;100260.00;;;18.30
19282;BMP180;9774;52.034;5.342;2022-11-09T02:23:17;100266.00;;;18.30
19282;BMP180;9774;52.034;5.342;2022-11-09T02:25:47;100265.00;;;18.20
19282;BMP180;9774;52.034;5.342;2022-11-09T02:28:16;100266.00;;;18.30
19282;BMP180;9774;52.034;5.342;2022-11-09T02:30:45;100273.00;;;18.20
19282;BMP180;9774;52.034;5.342;2022-11-09T02:33:15;100294.00;;;18.30
19282;BMP180;9774;52.034;5.342;2022-11-09T02:35:42;100296.00;;;18.20
19282;BMP180;9774;52.034;5.342;2022-11-09T02:38:12;100297.00;;;18.20
19282;BMP180;9774;52.034;5.342;2022-11-09T02:40:41;100291.00;;;18.20
19282;BMP180;9774;52.034;5.342;2022-11-09T02:43:09;100282.00;;;18.20
19282;BMP180;9774;52.034;5.342;2022-11-09T02:45:37;100284.00;;;18.20
19282;BMP180;9774;52.034;5.342;2022-11-09T02:48:05;100290.00;;;18.20
19282;BMP180;9774;52.034;5.342;2022-11-09T02:50:32;100276.00;;;18.20
19282;BMP180;9774;52.034;5.342;2022-11-09T02:53:02;100268.00;;;18.30
19282;BMP180;9774;52.034;5.342;2022-11-09T02:55:30;100273.00;;;18.20
19282;BMP180;9774;52.034;5.342;2022-11-09T02:57:58;100288.00;;;18.30
19282;BMP180;9774;52.034;5.342;2022-11-09T03:00:25;100295.00;;;18.30
19282;BMP180;9774;52.034;5.342;2022-11-09T03:02:52;100285.00;;;18.30
19282;BMP180;9774;52.034;5.342;2022-11-09T03:05:20;100280.00;;;18.30
19282;BMP180;9774;52.034;5.342;2022-11-09T03:07:47;100285.00;;;18.30
19282;BMP180;9774;52.034;5.342;2022-11-09T03:10:14;100278.00;;;18.30
19282;BMP180;9774;52.034;5.342;2022-11-09T03:12:43;100285.00;;;18.30
19282;BMP180;9774;52.034;5.342;2022-11-09T03:15:10;100284.00;;;18.40
19282;BMP180;9774;52.034;5.342;2022-11-09T03:17:38;100277.00;;;18.30
19282;BMP180;9774;52.034;5.342;2022-11-09T03:20:06;100294.00;;;18.30
19282;BMP180;9774;52.034;5.342;2022-11-09T03:22:34;100296.00;;;18.30
19282;BMP180;9774;52.034;5.342;2022-11-09T03:25:01;100295.00;;;18.30
19282;BMP180;9774;52.034;5.342;2022-11-09T03:27:28;100297.00;;;18.30
19282;BMP180;9774;52.034;5.342;2022-11-09T03:29:57;100297.00;;;18.30
19282;BMP180;9774;52.034;5.342;2022-11-09T03:32:24;100304.00;;;18.30
19282;BMP180;9774;52.034;5.342;2022-11-09T03:34:51;100315.00;;;18.30
19282;BMP180;9774;52.034;5.342;2022-11-09T03:37:19;100319.00;;;18.30
19282;BMP180;9774;52.034;5.342;2022-11-09T03:39:46;100314.00;;;18.30
19282;BMP180;9774;52.034;5.342;2022-11-09T03:42:13;100319.00;;;18.30
19282;BMP180;9774;52.034;5.342;2022-11-09T03:44:40;100317.00;;;18.30
19282;BMP180;9774;52.034;5.342;2022-11-09T03:47:09;100317.00;;;18.20
19282;BMP180;9774;52.034;5.342;2022-11-09T03:49:36;100322.00;;;18.20
19282;BMP180;9774;52.034;5.342;2022-11-09T03:52:03;100332.00;;;18.20
19282;BMP180;9774;52.034;5.342;2022-11-09T03:54:31;100324.00;;;18.20
19282;BMP180;9774;52.034;5.342;2022-11-09T03:56:58;100333.00;;;18.20
19282;BMP180;9774;52.034;5.342;2022-11-09T03:59:25;100334.00;;;18.20
19282;BMP180;9774;52.034;5.342;2022-11-09T04:01:52;100335.00;;;18.10
19282;BMP180;9774;52.034;5.342;2022-11-09T04:04:21;100345.00;;;18.10
19282;BMP180;9774;52.034;5.342;2022-11-09T04:06:48;100346.00;;;18.10
19282;BMP180;9774;52.034;5.342;2022-11-09T04:09:16;100344.00;;;18.10
19282;BMP180;9774;52.034;5.342;2022-11-09T04:11:43;100340.00;;;18.10
19282;BMP180;9774;52.034;5.342;2022-11-09T04:14:10;100339.00;;;18.10
19282;BMP180;9774;52.034;5.342;2022-11-09T04:16:37;100343.00;;;18.10
19282;BMP180;9774;52.034;5.342;2022-11-09T04:19:05;100344.00;;;18.00
19282;BMP180;9774;52.034;5.342;2022-11-09T04:21:33;100344.00;;;18.00
19282;BMP180;9774;52.034;5.342;2022-11-09T04:24:00;100346.00;;;18.00
19282;BMP180;9774;52.034;5.342;2022-11-09T04:26:28;100354.00;;;18.00
19282;BMP180;9774;52.034;5.342;2022-11-09T04:28:55;100353.00;;;18.00
19282;BMP180;9774;52.034;5.342;2022-11-09T04:31:22;100360.00;;;17.90
19282;BMP180;9774;52.034;5.342;2022-11-09T04:33:50;100372.00;;;17.90
19282;BMP180;9774;52.034;5.342;2022-11-09T04:36:17;100368.00;;;17.90
19282;BMP180;9774;52.034;5.342;2022-11-09T04:38:46;100368.00;;;17.90
19282;BMP180;9774;52.034;5.342;2022-11-09T04:41:14;100374.00;;;17.90
19282;BMP180;9774;52.034;5.342;2022-11-09T04:43:41;100365.00;;;17.90
19282;BMP180;9774;52.034;5.342;2022-11-09T04:46:08;100368.00;;;17.90
19282;BMP180;9774;52.034;5.342;2022-11-09T04:48:36;100370.00;;;17.90
19282;BMP180;9774;52.034;5.342;2022-11-09T04:51:04;100370.00;;;17.90
19282;BMP180;9774;52.034;5.342;2022-11-09T04:53:32;100369.00;;;17.90
19282;BMP180;9774;52.034;5.342;2022-11-09T04:56:01;100366.00;;;17.80
19282;BMP180;9774;52.034;5.342;2022-11-09T04:58:29;100371.00;;;17.90
19282;BMP180;9774;52.034;5.342;2022-11-09T05:01:01;100377.00;;;17.80
19282;BMP180;9774;52.034;5.342;2022-11-09T05:03:28;100369.00;;;17.80
19282;BMP180;9774;52.034;5.342;2022-11-09T05:05:56;100369.00;;;17.80
19282;BMP180;9774;52.034;5.342;2022-11-09T05:08:23;100372.00;;;17.80
19282;BMP180;9774;52.034;5.342;2022-11-09T05:10:50;100366.00;;;17.80
19282;BMP180;9774;52.034;5.342;2022-11-09T05:13:23;100367.00;;;17.80
19282;BMP180;9774;52.034;5.342;2022-11-09T05:15:50;100376.00;;;17.80
19282;BMP180;9774;52.034;5.342;2022-11-09T05:18:17;100373.00;;;17.80
19282;BMP180;9774;52.034;5.342;2022-11-09T05:20:44;100366.00;;;17.80
19282;BMP180;9774;52.034;5.342;2022-11-09T05:23:12;100364.00;;;17.80
19282;BMP180;9774;52.034;5.342;2022-11-09T05:25:55;100373.00;;;17.80
19282;BMP180;9774;52.034;5.342;2022-11-09T05:28:24;100374.00;;;17.70
19282;BMP180;9774;52.034;5.342;2022-11-09T05:30:51;100377.00;;;17.80
19282;BMP180;9774;52.034;5.342;2022-11-09T05:33:18;100376.00;;;17.70
19282;BMP180;9774;52.034;5.342;2022-11-09T05:35:46;100378.00;;;17.70
19282;BMP180;9774;52.034;5.342;2022-11-09T05:38:13;100373.00;;;17.70
19282;BMP180;9774;52.034;5.342;2022-11-09T05:40:40;100365.00;;;17.70
19282;BMP180;9774;52.034;5.342;2022-11-09T05:43:07;100370.00;;;17.70
19282;BMP180;9774;52.034;5.342;2022-11-09T05:45:36;100373.00;;;17.70
19282;BMP180;9774;52.034;5.342;2022-11-09T05:48:04;100375.00;;;17.60
19282;BMP180;9774;52.034;5.342;2022-11-09T05:50:31;100361.00;;;17.60
19282;BMP180;9774;52.034;5.342;2022-11-09T05:52:59;100372.00;;;17.60
19282;BMP180;9774;52.034;5.342;2022-11-09T05:55:27;100376.00;;;17.60
19282;BMP180;9774;52.034;5.342;2022-11-09T05:57:54;100375.00;;;17.60
19282;BMP180;9774;52.034;5.342;2022-11-09T06:00:21;100385.00;;;17.60
19282;BMP180;9774;52.034;5.342;2022-11-09T06:02:50;100376.00;;;17.60
19282;BMP180;9774;52.034;5.342;2022-11-09T06:05:18;100368.00;;;17.60
19282;BMP180;9774;52.034;5.342;2022-11-09T06:07:46;100378.00;;;17.60
19282;BMP180;9774;52.034;5.342;2022-11-09T06:10:13;100378.00;;;17.60
19282;BMP180;9774;52.034;5.342;2022-11-09T06:12:41;100376.00;;;17.60
19282;BMP180;9774;52.034;5.342;2022-11-09T06:15:08;100376.00;;;17.60
19282;BMP180;9774;52.034;5.342;2022-11-09T06:17:36;100379.00;;;17.60
19282;BMP180;9774;52.034;5.342;2022-11-09T06:20:05;100384.00;;;17.50
19282;BMP180;9774;52.034;5.342;2022-11-09T06:22:33;100388.00;;;17.60
19282;BMP180;9774;52.034;5.342;2022-11-09T06:25:00;100392.00;;;17.60
19282;BMP180;9774;52.034;5.342;2022-11-09T06:27:27;100394.00;;;17.60
19282;BMP180;9774;52.034;5.342;2022-11-09T06:29:54;100394.00;;;17.60
19282;BMP180;9774;52.034;5.342;2022-11-09T06:32:22;100398.00;;;17.50
19282;BMP180;9774;52.034;5.342;2022-11-09T06:34:49;100400.00;;;17.50
19282;BMP180;9774;52.034;5.342;2022-11-09T06:37:17;100406.00;;;17.50
19282;BMP180;9774;52.034;5.342;2022-11-09T06:39:45;100406.00;;;17.50
19282;BMP180;9774;52.034;5.342;2022-11-09T06:42:13;100416.00;;;17.50
19282;BMP180;9774;52.034;5.342;2022-11-09T06:44:40;100414.00;;;17.50
19282;BMP180;9774;52.034;5.342;2022-11-09T06:47:07;100410.00;;;17.50
19282;BMP180;9774;52.034;5.342;2022-11-09T06:49:35;100409.00;;;17.50
19282;BMP180;9774;52.034;5.342;2022-11-09T06:52:02;100415.00;;;17.50
19282;BMP180;9774;52.034;5.342;2022-11-09T06:54:31;100412.00;;;17.50
19282;BMP180;9774;52.034;5.342;2022-11-09T06:56:59;100415.00;;;17.50
19282;BMP180;9774;52.034;5.342;2022-11-09T06:59:27;100411.00;;;17.50
19282;BMP180;9774;52.034;5.342;2022-11-09T07:01:54;100407.00;;;17.50
19282;BMP180;9774;52.034;5.342;2022-11-09T07:04:21;100418.00;;;17.40
19282;BMP180;9774;52.034;5.342;2022-11-09T07:06:48;100419.00;;;17.40
19282;BMP180;9774;52.034;5.342;2022-11-09T07:09:16;100429.00;;;17.40
19282;BMP180;9774;52.034;5.342;2022-11-09T07:11:45;100426.00;;;17.40
19282;BMP180;9774;52.034;5.342;2022-11-09T07:14:14;100425.00;;;17.40
19282;BMP180;9774;52.034;5.342;2022-11-09T07:16:41;100423.00;;;17.40
19282;BMP180;9774;52.034;5.342;2022-11-09T07:19:08;100425.00;;;17.40
19282;BMP180;9774;52.034;5.342;2022-11-09T07:21:35;100428.00;;;17.40
19282;BMP180;9774;52.034;5.342;2022-11-09T07:24:03;100435.00;;;17.40
19282;BMP180;9774;52.034;5.342;2022-11-09T07:26:30;100430.00;;;17.50
19282;BMP180;9774;52.034;5.342;2022-11-09T07:28:59;100426.00;;;17.40
19282;BMP180;9774;52.034;5.342;2022-11-09T07:31:26;100428.00;;;17.50
19282;BMP180;9774;52.034;5.342;2022-11-09T07:33:54;100424.00;;;17.50
19282;BMP180;9774;52.034;5.342;2022-11-09T07:36:23;100423.00;;;17.50
19282;BMP180;9774;52.034;5.342;2022-11-09T07:38:50;100433.00;;;17.50
19282;BMP180;9774;52.034;5.342;2022-11-09T07:41:18;100438.00;;;17.50
19282;BMP180;9774;52.034;5.342;2022-11-09T07:43:45;100437.00;;;17.50
19282;BMP180;9774;52.034;5.342;2022-11-09T07:46:14;100442.00;;;17.50
19282;BMP180;9774;52.034;5.342;2022-11-09T07:48:41;100434.00;;;17.60
19282;BMP180;9774;52.034;5.342;2022-11-09T07:51:08;100439.00;;;17.60
19282;BMP180;9774;52.034;5.342;2022-11-09T07:53:36;100443.00;;;17.60
19282;BMP180;9774;52.034;5.342;2022-11-09T07:56:04;100445.00;;;17.60
19282;BMP180;9774;52.034;5.342;2022-11-09T07:58:32;100443.00;;;17.70
19282;BMP180;9774;52.034;5.342;2022-11-09T08:01:05;100446.00;;;17.70
19282;BMP180;9774;52.034;5.342;2022-11-09T08:03:33;100453.00;;;17.70
19282;BMP180;9774;52.034;5.342;2022-11-09T08:06:00;100457.00;;;17.80
19282;BMP180;9774;52.034;5.342;2022-11-09T08:08:28;100465.00;;;17.80
19282;BMP180;9774;52.034;5.342;2022-11-09T08:10:56;100464.00;;;17.80
19282;BMP180;9774;52.034;5.342;2022-11-09T08:13:23;100464.00;;;17.80
19282;BMP180;9774;52.034;5.342;2022-11-09T08:15:51;100458.00;;;17.90
19282;BMP180;9774;52.034;5.342;2022-11-09T08:18:20;100465.00;;;17.90
19282;BMP180;9774;52.034;5.342;2022-11-09T08:20:49;100461.00;;;17.90
19282;BMP180;9774;52.034;5.342;2022-11-09T08:23:18;100472.00;;;17.90
19282;BMP180;9774;52.034;5.342;2022-11-09T08:25:48;100468.00;;;18.00
19282;BMP180;9774;52.034;5.342;2022-11-09T08:28:15;100466.00;;;18.00
19282;BMP180;9774;52.034;5.342;2022-11-09T08:30:43;100476.00;;;18.00
19282;BMP180;9774;52.034;5.342;2022-11-09T08:33:12;100477.00;;;18.10
19282;BMP180;9774;52.034;5.342;2022-11-09T08:35:39;100476.00;;;18.10
19282;BMP180;9774;52.034;5.342;2022-11-09T08:38:08;100476.00;;;18.10
19282;BMP180;9774;52.034;5.342;2022-11-09T08:40:36;100472.00;;;18.20
19282;BMP180;9774;52.034;5.342;2022-11-09T08:43:05;100476.00;;;18.20
19282;BMP180;9774;52.034;5.342;2022-11-09T08:45:35;100480.00;;;18.30
19282;BMP180;9774;52.034;5.342;2022-11-09T08:48:03;100485.00;;;18.30
19282;BMP180;9774;52.034;5.342;2022-11-09T08:50:32;100480.00;;;18.30
19282;BMP180;9774;52.034;5.342;2022-11-09T08:53:00;100479.00;;;18.40
19282;BMP180;9774;52.034;5.342;2022-11-09T08:55:29;100477.00;;;18.40
19282;BMP180;9774;52.034;5.342;2022-11-09T08:57:58;100491.00;;;18.40
19282;BMP180;9774;52.034;5.342;2022-11-09T09:00:26;100479.00;;;18.50
19282;BMP180;9774;52.034;5.342;2022-11-09T09:02:53;100494.00;;;18.50
19282;BMP180;9774;52.034;5.342;2022-11-09T09:05:21;100479.00;;;18.50
19282;BMP180;9774;52.034;5.342;2022-11-09T09:07:48;100487.00;;;18.50
19282;BMP180;9774;52.034;5.342;2022-11-09T09:10:16;100486.00;;;18.60
19282;BMP180;9774;52.034;5.342;2022-11-09T09:12:44;100497.00;;;18.60
19282;BMP180;9774;52.034;5.342;2022-11-09T09:15:12;100495.00;;;18.60
19282;BMP180;9774;52.034;5.342;2022-11-09T09:17:39;100492.00;;;18.60
19282;BMP180;9774;52.034;5.342;2022-11-09T09:20:07;100506.00;;;18.70
19282;BMP180;9774;52.034;5.342;2022-11-09T09:22:34;100502.00;;;18.70
19282;BMP180;9774;52.034;5.342;2022-11-09T09:25:02;100491.00;;;18.70
19282;BMP180;9774;52.034;5.342;2022-11-09T09:27:29;100491.00;;;18.80
19282;BMP180;9774;52.034;5.342;2022-11-09T09:29:58;100492.00;;;18.80
19282;BMP180;9774;52.034;5.342;2022-11-09T09:32:25;100498.00;;;18.90
19282;BMP180;9774;52.034;5.342;2022-11-09T09:34:52;100496.00;;;19.00
19282;BMP180;9774;52.034;5.342;2022-11-09T09:37:19;100508.00;;;19.10
19282;BMP180;9774;52.034;5.342;2022-11-09T09:39:47;100504.00;;;19.10
19282;BMP180;9774;52.034;5.342;2022-11-09T09:42:17;100504.00;;;19.20
19282;BMP180;9774;52.034;5.342;2022-11-09T09:44:50;100507.00;;;19.20
19282;BMP180;9774;52.034;5.342;2022-11-09T09:47:23;100500.00;;;19.20
19282;BMP180;9774;52.034;5.342;2022-11-09T09:49:56;100511.00;;;19.30
19282;BMP180;9774;52.034;5.342;2022-11-09T09:52:31;100516.00;;;19.30
19282;BMP180;9774;52.034;5.342;2022-11-09T09:55:04;100516.00;;;19.30
19282;BMP180;9774;52.034;5.342;2022-11-09T09:57:35;100513.00;;;19.40
19282;BMP180;9774;52.034;5.342;2022-11-09T10:00:05;100515.00;;;19.40
19282;BMP180;9774;52.034;5.342;2022-11-09T10:02:36;100522.00;;;19.50
19282;BMP180;9774;52.034;5.342;2022-11-09T10:05:08;100527.00;;;19.50
19282;BMP180;9774;52.034;5.342;2022-11-09T10:07:40;100549.00;;;19.60
19282;BMP180;9774;52.034;5.342;2022-11-09T10:10:27;100531.00;;;19.60
19282;BMP180;9774;52.034;5.342;2022-11-09T10:16:00;100543.00;;;19.70
19282;BMP180;9774;52.034;5.342;2022-11-09T10:18:44;100539.00;;;19.70
19282;BMP180;9774;52.034;5.342;2022-11-09T10:21:22;100540.00;;;19.80
19282;BMP180;9774;52.034;5.342;2022-11-09T10:24:05;100546.00;;;19.80
19282;BMP180;9774;52.034;5.342;2022-11-09T10:26:40;100558.00;;;19.90
19282;BMP180;9774;52.034;5.342;2022-11-09T10:29:21;100568.00;;;19.90
19282;BMP180;9774;52.034;5.342;2022-11-09T10:31:51;100560.00;;;20.00
19282;BMP180;9774;52.034;5.342;2022-11-09T10:34:23;100558.00;;;20.00
19282;BMP180;9774;52.034;5.342;2022-11-09T10:36:58;100568.00;;;19.90
19282;BMP180;9774;52.034;5.342;2022-11-09T10:39:36;100553.00;;;19.90
19282;BMP180;9774;52.034;5.342;2022-11-09T10:42:05;100563.00;;;20.00
19282;BMP180;9774;52.034;5.342;2022-11-09T10:44:32;100559.00;;;20.00
19282;BMP180;9774;52.034;5.342;2022-11-09T10:47:08;100569.00;;;20.00
19282;BMP180;9774;52.034;5.342;2022-11-09T10:49:39;100560.00;;;20.10
19282;BMP180;9774;52.034;5.342;2022-11-09T10:52:29;100557.00;;;20.00
19282;BMP180;9774;52.034;5.342;2022-11-09T10:55:18;100564.00;;;20.10
19282;BMP180;9774;52.034;5.342;2022-11-09T10:57:56;100558.00;;;20.10
19282;BMP180;9774;52.034;5.342;2022-11-09T11:00:25;100555.00;;;20.20
19282;BMP180;9774;52.034;5.342;2022-11-09T11:02:53;100556.00;;;20.10
19282;BMP180;9774;52.034;5.342;2022-11-09T11:05:32;100556.00;;;20.10
19282;BMP180;9774;52.034;5.342;2022-11-09T11:08:26;100557.00;;;20.10
19282;BMP180;9774;52.034;5.342;2022-11-09T11:11:07;100549.00;;;20.10
19282;BMP180;9774;52.034;5.342;2022-11-09T11:13:35;100552.00;;;20.20
19282;BMP180;9774;52.034;5.342;2022-11-09T11:16:13;100559.00;;;20.10
19282;BMP180;9774;52.034;5.342;2022-11-09T11:18:44;100566.00;;;20.10
19282;BMP180;9774;52.034;5.342;2022-11-09T11:21:16;100570.00;;;20.10
19282;BMP180;9774;52.034;5.342;2022-11-09T11:23:43;100564.00;;;20.20
19282;BMP180;9774;52.034;5.342;2022-11-09T11:26:35;100565.00;;;20.00
19282;BMP180;9774;52.034;5.342;2022-11-09T11:29:11;100561.00;;;20.10
19282;BMP180;9774;52.034;5.342;2022-11-09T11:31:41;100561.00;;;20.20
19282;BMP180;9774;52.034;5.342;2022-11-09T11:34:13;100554.00;;;20.10
19282;BMP180;9774;52.034;5.342;2022-11-09T11:36:53;100560.00;;;20.10
19282;BMP180;9774;52.034;5.342;2022-11-09T11:39:31;100556.00;;;20.10
19282;BMP180;9774;52.034;5.342;2022-11-09T11:42:15;100557.00;;;20.10
19282;BMP180;9774;52.034;5.342;2022-11-09T11:44:55;100559.00;;;20.10
19282;BMP180;9774;52.034;5.342;2022-11-09T11:47:30;100568.00;;;20.10
19282;BMP180;9774;52.034;5.342;2022-11-09T11:50:16;100577.00;;;20.00
19282;BMP180;9774;52.034;5.342;2022-11-09T11:52:56;100571.00;;;20.00
19282;BMP180;9774;52.034;5.342;2022-11-09T11:55:38;100578.00;;;19.90
19282;BMP180;9774;52.034;5.342;2022-11-09T11:58:27;100563.00;;;19.80
19282;BMP180;9774;52.034;5.342;2022-11-09T12:01:00;100562.00;;;19.80
19282;BMP180;9774;52.034;5.342;2022-11-09T12:03:45;100570.00;;;19.70
19282;BMP180;9774;52.034;5.342;2022-11-09T12:06:28;100572.00;;;19.70
19282;BMP180;9774;52.034;5.342;2022-11-09T12:09:11;100570.00;;;19.70
19282;BMP180;9774;52.034;5.342;2022-11-09T12:11:54;100563.00;;;19.60
19282;BMP180;9774;52.034;5.342;2022-11-09T12:14:33;100571.00;;;19.70
19282;BMP180;9774;52.034;5.342;2022-11-09T12:17:10;100567.00;;;19.70
19282;BMP180;9774;52.034;5.342;2022-11-09T12:19:56;100568.00;;;19.60
19282;BMP180;9774;52.034;5.342;2022-11-09T12:22:35;100575.00;;;19.70
19282;BMP180;9774;52.034;5.342;2022-11-09T12:25:14;100570.00;;;19.70
19282;BMP180;9774;52.034;5.342;2022-11-09T12:27:52;100566.00;;;19.80
19282;BMP180;9774;52.034;5.342;2022-11-09T12:30:24;100568.00;;;19.90
19282;BMP180;9774;52.034;5.342;2022-11-09T12:32:55;100569.00;;;19.90
19282;BMP180;9774;52.034;5.342;2022-11-09T12:35:30;100569.00;;;19.90
19282;BMP180;9774;52.034;5.342;2022-11-09T12:38:02;100579.00;;;19.90
19282;BMP180;9774;52.034;5.342;2022-11-09T12:40:33;100577.00;;;19.90
19282;BMP180;9774;52.034;5.342;2022-11-09T12:43:09;100580.00;;;20.00
19282;BMP180;9774;52.034;5.342;2022-11-09T12:45:41;100577.00;;;20.00
19282;BMP180;9774;52.034;5.342;2022-11-09T12:48:15;100560.00;;;19.90
19282;BMP180;9774;52.034;5.342;2022-11-09T12:50:46;100575.00;;;20.00
19282;BMP180;9774;52.034;5.342;2022-11-09T12:53:14;100581.00;;;20.00
19282;BMP180;9774;52.034;5.342;2022-11-09T12:55:46;100574.00;;;20.00
19282;BMP180;9774;52.034;5.342;2022-11-09T12:58:23;100591.00;;;20.10
19282;BMP180;9774;52.034;5.342;2022-11-09T13:00:53;100587.00;;;20.20
19282;BMP180;9774;52.034;5.342;2022-11-09T13:03:24;100589.00;;;20.30
19282;BMP180;9774;52.034;5.342;2022-11-09T13:06:08;100588.00;;;20.30
19282;BMP180;9774;52.034;5.342;2022-11-09T13:08:36;100591.00;;;20.60
19282;BMP180;9774;52.034;5.342;2022-11-09T13:11:16;100590.00;;;20.80
19282;BMP180;9774;52.034;5.342;2022-11-09T13:13:45;100593.00;;;21.10
19282;BMP180;9774;52.034;5.342;2022-11-09T13:16:32;100609.00;;;21.30
19282;BMP180;9774;52.034;5.342;2022-11-09T13:19:00;100605.00;;;21.40
19282;BMP180;9774;52.034;5.342;2022-11-09T13:21:36;100610.00;;;21.30
19282;BMP180;9774;52.034;5.342;2022-11-09T13:27:38;100615.00;;;21.20
19282;BMP180;9774;52.034;5.342;2022-11-09T13:33:19;100625.00;;;21.10
19282;BMP180;9774;52.034;5.342;2022-11-09T13:36:14;100625.00;;;20.90
19282;BMP180;9774;52.034;5.342;2022-11-09T13:38:42;100633.00;;;21.00
19282;BMP180;9774;52.034;5.342;2022-11-09T13:41:41;100626.00;;;20.70
19282;BMP180;9774;52.034;5.342;2022-11-09T13:44:23;100629.00;;;20.70
19282;BMP180;9774;52.034;5.342;2022-11-09T13:46:51;100631.00;;;20.90
19282;BMP180;9774;52.034;5.342;2022-11-09T13:49:39;100634.00;;;21.00
19282;BMP180;9774;52.034;5.342;2022-11-09T13:58:11;100640.00;;;21.10
19282;BMP180;9774;52.034;5.342;2022-11-09T14:00:44;100646.00;;;21.00
19282;BMP180;9774;52.034;5.342;2022-11-09T14:03:23;100644.00;;;20.90
19282;BMP180;9774;52.034;5.342;2022-11-09T14:05:52;100649.00;;;20.90
19282;BMP180;9774;52.034;5.342;2022-11-09T14:08:23;100658.00;;;20.80
19282;BMP180;9774;52.034;5.342;2022-11-09T14:11:04;100658.00;;;20.70
19282;BMP180;9774;52.034;5.342;2022-11-09T14:13:55;100655.00;;;20.60
19282;BMP180;9774;52.034;5.342;2022-11-09T14:16:39;100666.00;;;20.60
19282;BMP180;9774;52.034;5.342;2022-11-09T14:19:16;100657.00;;;20.50
19282;BMP180;9774;52.034;5.342;2022-11-09T14:21:47;100663.00;;;20.50
19282;BMP180;9774;52.034;5.342;2022-11-09T14:24:19;100666.00;;;20.40
19282;BMP180;9774;52.034;5.342;2022-11-09T14:27:01;100670.00;;;20.30
19282;BMP180;9774;52.034;5.342;2022-11-09T14:29:29;100676.00;;;20.30
19282;BMP180;9774;52.034;5.342;2022-11-09T14:32:00;100694.00;;;20.20
19282;BMP180;9774;52.034;5.342;2022-11-09T14:34:28;100685.00;;;20.20
19282;BMP180;9774;52.034;5.342;2022-11-09T14:36:56;100687.00;;;20.10
19282;BMP180;9774;52.034;5.342;2022-11-09T14:39:26;100699.00;;;20.10
19282;BMP180;9774;52.034;5.342;2022-11-09T14:41:54;100702.00;;;20.00
19282;BMP180;9774;52.034;5.342;2022-11-09T14:44:26;100699.00;;;19.90